sensor_id;sensor_type;location;lat;lon;timestamp;P1;durP1;ratioP1;P2;durP2;ratioP2
67941;SDS011;54731;42.600;23.476;2023-07-02T00:02:22;11.15;;;4.40;;
67941;SDS011;54731;42.600;23.476;2023-07-02T00:04:47;14.63;;;5.03;;
67941;SDS011;54731;42.600;23.476;2023-07-02T00:07:13;7.57;;;3.93;;
67941;SDS011;54731;42.600;23.476;2023-07-02T00:09:39;10.60;;;3.80;;
67941;SDS011;54731;42.600;23.476;2023-07-02T00:12:04;8.35;;;4.22;;
67941;SDS011;54731;42.600;23.476;2023-07-02T00:14:30;12.30;;;4.53;;
67941;SDS011;54731;42.600;23.476;2023-07-02T00:16:55;11.03;;;3.93;;
67941;SDS011;54731;42.600;23.476;2023-07-02T00:19:20;7.60;;;3.87;;
67941;SDS011;54731;42.600;23.476;2023-07-02T00:21:46;8.43;;;3.60;;
67941;SDS011;54731;42.600;23.476;2023-07-02T00:24:11;10.48;;;4.03;;
67941;SDS011;54731;42.600;23.476;2023-07-02T00:26:36;6.97;;;3.33;;
67941;SDS011;54731;42.600;23.476;2023-07-02T00:29:02;8.75;;;3.63;;
67941;SDS011;54731;42.600;23.476;2023-07-02T00:31:28;10.02;;;3.60;;
67941;SDS011;54731;42.600;23.476;2023-07-02T00:33:53;9.23;;;3.30;;
67941;SDS011;54731;42.600;23.476;2023-07-02T00:36:19;8.27;;;3.50;;
67941;SDS011;54731;42.600;23.476;2023-07-02T00:38:44;10.27;;;3.83;;
67941;SDS011;54731;42.600;23.476;2023-07-02T00:41:11;6.57;;;3.38;;
67941;SDS011;54731;42.600;23.476;2023-07-02T00:43:36;7.53;;;4.07;;
67941;SDS011;54731;42.600;23.476;2023-07-02T00:46:02;6.63;;;3.63;;
67941;SDS011;54731;42.600;23.476;2023-07-02T00:48:29;6.87;;;3.63;;
67941;SDS011;54731;42.600;23.476;2023-07-02T00:50:55;7.75;;;3.42;;
67941;SDS011;54731;42.600;23.476;2023-07-02T00:53:20;6.47;;;3.45;;
67941;SDS011;54731;42.600;23.476;2023-07-02T00:55:46;7.67;;;3.67;;
67941;SDS011;54731;42.600;23.476;2023-07-02T00:58:11;7.80;;;3.57;;
67941;SDS011;54731;42.600;23.476;2023-07-02T01:00:36;8.77;;;4.03;;
67941;SDS011;54731;42.600;23.476;2023-07-02T01:03:02;7.10;;;3.90;;
67941;SDS011;54731;42.600;23.476;2023-07-02T01:05:28;8.70;;;3.83;;
67941;SDS011;54731;42.600;23.476;2023-07-02T01:07:53;9.68;;;3.85;;
67941;SDS011;54731;42.600;23.476;2023-07-02T01:10:19;10.77;;;4.73;;
67941;SDS011;54731;42.600;23.476;2023-07-02T01:12:44;9.27;;;4.87;;
67941;SDS011;54731;42.600;23.476;2023-07-02T01:15:10;8.70;;;4.70;;
67941;SDS011;54731;42.600;23.476;2023-07-02T01:17:36;10.23;;;4.43;;
67941;SDS011;54731;42.600;23.476;2023-07-02T01:20:01;9.00;;;4.40;;
67941;SDS011;54731;42.600;23.476;2023-07-02T01:22:27;9.00;;;4.65;;
67941;SDS011;54731;42.600;23.476;2023-07-02T01:24:53;9.03;;;4.23;;
67941;SDS011;54731;42.600;23.476;2023-07-02T01:27:19;10.80;;;4.70;;
67941;SDS011;54731;42.600;23.476;2023-07-02T01:29:46;10.73;;;4.32;;
67941;SDS011;54731;42.600;23.476;2023-07-02T01:32:12;8.32;;;4.82;;
67941;SDS011;54731;42.600;23.476;2023-07-02T01:34:38;10.63;;;4.53;;
67941;SDS011;54731;42.600;23.476;2023-07-02T01:37:03;9.93;;;4.67;;
67941;SDS011;54731;42.600;23.476;2023-07-02T01:39:29;7.23;;;4.07;;
67941;SDS011;54731;42.600;23.476;2023-07-02T01:41:56;11.05;;;4.35;;
67941;SDS011;54731;42.600;23.476;2023-07-02T01:44:35;11.07;;;4.50;;
67941;SDS011;54731;42.600;23.476;2023-07-02T01:47:00;7.47;;;4.63;;
67941;SDS011;54731;42.600;23.476;2023-07-02T01:49:26;10.77;;;4.53;;
67941;SDS011;54731;42.600;23.476;2023-07-02T01:51:51;7.80;;;4.10;;
67941;SDS011;54731;42.600;23.476;2023-07-02T01:54:21;10.02;;;4.10;;
67941;SDS011;54731;42.600;23.476;2023-07-02T01:56:49;10.85;;;4.50;;
67941;SDS011;54731;42.600;23.476;2023-07-02T01:59:15;7.83;;;4.17;;
67941;SDS011;54731;42.600;23.476;2023-07-02T02:01:41;7.80;;;3.45;;
67941;SDS011;54731;42.600;23.476;2023-07-02T02:04:06;7.33;;;3.70;;
67941;SDS011;54731;42.600;23.476;2023-07-02T02:06:32;9.23;;;4.10;;
67941;SDS011;54731;42.600;23.476;2023-07-02T02:08:58;8.73;;;4.07;;
67941;SDS011;54731;42.600;23.476;2023-07-02T02:11:23;8.10;;;3.90;;
67941;SDS011;54731;42.600;23.476;2023-07-02T02:13:48;8.23;;;4.07;;
67941;SDS011;54731;42.600;23.476;2023-07-02T02:16:14;8.23;;;4.10;;
67941;SDS011;54731;42.600;23.476;2023-07-02T02:18:39;8.18;;;4.15;;
67941;SDS011;54731;42.600;23.476;2023-07-02T02:21:04;7.45;;;4.22;;
67941;SDS011;54731;42.600;23.476;2023-07-02T02:23:30;8.13;;;4.03;;
67941;SDS011;54731;42.600;23.476;2023-07-02T02:25:55;9.97;;;4.47;;
67941;SDS011;54731;42.600;23.476;2023-07-02T02:28:20;13.47;;;5.47;;
67941;SDS011;54731;42.600;23.476;2023-07-02T02:30:45;8.67;;;4.63;;
67941;SDS011;54731;42.600;23.476;2023-07-02T02:33:11;12.43;;;6.47;;
67941;SDS011;54731;42.600;23.476;2023-07-02T02:35:36;15.63;;;7.50;;
67941;SDS011;54731;42.600;23.476;2023-07-02T02:38:02;13.20;;;6.60;;
67941;SDS011;54731;42.600;23.476;2023-07-02T02:40:28;14.35;;;7.10;;
67941;SDS011;54731;42.600;23.476;2023-07-02T02:42:53;15.37;;;7.40;;
67941;SDS011;54731;42.600;23.476;2023-07-02T02:45:18;13.37;;;6.67;;
67941;SDS011;54731;42.600;23.476;2023-07-02T02:47:45;10.63;;;7.10;;
67941;SDS011;54731;42.600;23.476;2023-07-02T02:50:11;13.90;;;7.35;;
67941;SDS011;54731;42.600;23.476;2023-07-02T02:52:37;14.43;;;7.45;;
67941;SDS011;54731;42.600;23.476;2023-07-02T02:55:05;11.70;;;6.53;;
67941;SDS011;54731;42.600;23.476;2023-07-02T02:57:31;12.73;;;6.75;;
67941;SDS011;54731;42.600;23.476;2023-07-02T02:59:57;12.65;;;6.32;;
67941;SDS011;54731;42.600;23.476;2023-07-02T03:02:22;10.47;;;6.33;;
67941;SDS011;54731;42.600;23.476;2023-07-02T03:04:48;12.63;;;6.33;;
67941;SDS011;54731;42.600;23.476;2023-07-02T03:07:13;9.47;;;6.10;;
67941;SDS011;54731;42.600;23.476;2023-07-02T03:09:38;13.20;;;6.53;;
67941;SDS011;54731;42.600;23.476;2023-07-02T03:12:04;15.60;;;7.00;;
67941;SDS011;54731;42.600;23.476;2023-07-02T03:14:29;13.23;;;6.63;;
67941;SDS011;54731;42.600;23.476;2023-07-02T03:16:55;12.77;;;6.83;;
67941;SDS011;54731;42.600;23.476;2023-07-02T03:19:20;9.50;;;5.63;;
67941;SDS011;54731;42.600;23.476;2023-07-02T03:21:45;8.50;;;3.40;;
67941;SDS011;54731;42.600;23.476;2023-07-02T03:24:10;5.10;;;2.90;;
67941;SDS011;54731;42.600;23.476;2023-07-02T03:26:36;8.27;;;4.27;;
67941;SDS011;54731;42.600;23.476;2023-07-02T03:29:01;11.00;;;6.30;;
67941;SDS011;54731;42.600;23.476;2023-07-02T03:31:26;15.05;;;6.63;;
67941;SDS011;54731;42.600;23.476;2023-07-02T03:33:52;13.07;;;7.37;;
67941;SDS011;54731;42.600;23.476;2023-07-02T03:36:17;15.27;;;7.60;;
67941;SDS011;54731;42.600;23.476;2023-07-02T03:38:42;16.07;;;8.53;;
67941;SDS011;54731;42.600;23.476;2023-07-02T03:41:08;15.33;;;7.67;;
67941;SDS011;54731;42.600;23.476;2023-07-02T03:43:33;17.57;;;7.43;;
67941;SDS011;54731;42.600;23.476;2023-07-02T03:45:58;14.50;;;7.37;;
67941;SDS011;54731;42.600;23.476;2023-07-02T03:48:23;15.07;;;7.70;;
67941;SDS011;54731;42.600;23.476;2023-07-02T03:50:49;16.40;;;6.53;;
67941;SDS011;54731;42.600;23.476;2023-07-02T03:53:14;11.33;;;6.30;;
67941;SDS011;54731;42.600;23.476;2023-07-02T03:55:39;8.95;;;4.80;;
67941;SDS011;54731;42.600;23.476;2023-07-02T03:58:04;9.03;;;4.53;;
67941;SDS011;54731;42.600;23.476;2023-07-02T04:00:30;7.17;;;4.23;;
67941;SDS011;54731;42.600;23.476;2023-07-02T04:02:55;9.30;;;5.10;;
67941;SDS011;54731;42.600;23.476;2023-07-02T04:05:20;8.33;;;4.93;;
67941;SDS011;54731;42.600;23.476;2023-07-02T04:07:46;9.27;;;5.80;;
67941;SDS011;54731;42.600;23.476;2023-07-02T04:10:11;10.70;;;6.50;;
67941;SDS011;54731;42.600;23.476;2023-07-02T04:12:36;14.73;;;7.23;;
67941;SDS011;54731;42.600;23.476;2023-07-02T04:15:02;10.53;;;7.17;;
67941;SDS011;54731;42.600;23.476;2023-07-02T04:17:27;12.77;;;7.70;;
67941;SDS011;54731;42.600;23.476;2023-07-02T04:19:54;15.10;;;7.33;;
67941;SDS011;54731;42.600;23.476;2023-07-02T04:22:19;12.47;;;7.43;;
67941;SDS011;54731;42.600;23.476;2023-07-02T04:24:45;17.05;;;8.40;;
67941;SDS011;54731;42.600;23.476;2023-07-02T04:27:10;10.40;;;6.10;;
67941;SDS011;54731;42.600;23.476;2023-07-02T04:29:35;11.20;;;5.07;;
67941;SDS011;54731;42.600;23.476;2023-07-02T04:32:01;8.87;;;5.10;;
67941;SDS011;54731;42.600;23.476;2023-07-02T04:34:26;12.17;;;4.60;;
67941;SDS011;54731;42.600;23.476;2023-07-02T04:36:51;8.20;;;4.10;;
67941;SDS011;54731;42.600;23.476;2023-07-02T04:39:16;7.97;;;3.97;;
67941;SDS011;54731;42.600;23.476;2023-07-02T04:41:42;13.07;;;7.07;;
67941;SDS011;54731;42.600;23.476;2023-07-02T04:44:07;10.80;;;6.70;;
67941;SDS011;54731;42.600;23.476;2023-07-02T04:46:32;12.83;;;7.07;;
67941;SDS011;54731;42.600;23.476;2023-07-02T04:48:58;13.68;;;7.20;;
67941;SDS011;54731;42.600;23.476;2023-07-02T04:51:24;15.30;;;7.80;;
67941;SDS011;54731;42.600;23.476;2023-07-02T04:53:49;12.43;;;7.13;;
67941;SDS011;54731;42.600;23.476;2023-07-02T04:56:15;14.57;;;6.38;;
67941;SDS011;54731;42.600;23.476;2023-07-02T04:58:40;11.10;;;5.00;;
67941;SDS011;54731;42.600;23.476;2023-07-02T05:01:05;8.77;;;5.20;;
67941;SDS011;54731;42.600;23.476;2023-07-02T05:03:30;11.50;;;5.50;;
67941;SDS011;54731;42.600;23.476;2023-07-02T05:05:56;10.53;;;5.83;;
67941;SDS011;54731;42.600;23.476;2023-07-02T05:08:21;10.57;;;5.73;;
67941;SDS011;54731;42.600;23.476;2023-07-02T05:10:46;10.23;;;5.83;;
67941;SDS011;54731;42.600;23.476;2023-07-02T05:13:12;9.13;;;5.03;;
67941;SDS011;54731;42.600;23.476;2023-07-02T05:15:37;11.18;;;5.93;;
67941;SDS011;54731;42.600;23.476;2023-07-02T05:18:02;10.40;;;5.87;;
67941;SDS011;54731;42.600;23.476;2023-07-02T05:20:28;10.73;;;5.77;;
67941;SDS011;54731;42.600;23.476;2023-07-02T05:22:53;12.50;;;5.97;;
67941;SDS011;54731;42.600;23.476;2023-07-02T05:25:18;12.80;;;6.00;;
67941;SDS011;54731;42.600;23.476;2023-07-02T05:27:44;11.17;;;6.53;;
67941;SDS011;54731;42.600;23.476;2023-07-02T05:30:09;13.57;;;7.17;;
67941;SDS011;54731;42.600;23.476;2023-07-02T05:32:35;12.55;;;6.40;;
67941;SDS011;54731;42.600;23.476;2023-07-02T05:35:00;13.50;;;6.73;;
67941;SDS011;54731;42.600;23.476;2023-07-02T05:37:25;12.17;;;7.20;;
67941;SDS011;54731;42.600;23.476;2023-07-02T05:39:51;14.40;;;6.57;;
67941;SDS011;54731;42.600;23.476;2023-07-02T05:42:16;16.13;;;6.73;;
67941;SDS011;54731;42.600;23.476;2023-07-02T05:44:41;10.93;;;6.28;;
67941;SDS011;54731;42.600;23.476;2023-07-02T05:47:07;12.40;;;6.70;;
67941;SDS011;54731;42.600;23.476;2023-07-02T05:49:32;12.00;;;6.23;;
67941;SDS011;54731;42.600;23.476;2023-07-02T05:51:57;15.30;;;6.67;;
67941;SDS011;54731;42.600;23.476;2023-07-02T05:54:23;11.27;;;6.20;;
67941;SDS011;54731;42.600;23.476;2023-07-02T05:56:48;12.83;;;7.10;;
67941;SDS011;54731;42.600;23.476;2023-07-02T05:59:13;16.07;;;6.67;;
67941;SDS011;54731;42.600;23.476;2023-07-02T06:01:38;15.63;;;7.10;;
67941;SDS011;54731;42.600;23.476;2023-07-02T06:04:04;15.23;;;7.00;;
67941;SDS011;54731;42.600;23.476;2023-07-02T06:06:29;12.10;;;6.67;;
67941;SDS011;54731;42.600;23.476;2023-07-02T06:08:54;11.97;;;7.03;;
67941;SDS011;54731;42.600;23.476;2023-07-02T06:11:19;13.65;;;7.78;;
67941;SDS011;54731;42.600;23.476;2023-07-02T06:13:45;13.00;;;7.43;;
67941;SDS011;54731;42.600;23.476;2023-07-02T06:16:10;14.57;;;7.20;;
67941;SDS011;54731;42.600;23.476;2023-07-02T06:18:35;13.20;;;7.73;;
67941;SDS011;54731;42.600;23.476;2023-07-02T06:21:01;14.67;;;8.33;;
67941;SDS011;54731;42.600;23.476;2023-07-02T06:23:26;14.30;;;7.50;;
67941;SDS011;54731;42.600;23.476;2023-07-02T06:25:52;16.60;;;7.30;;
67941;SDS011;54731;42.600;23.476;2023-07-02T06:28:17;14.55;;;6.53;;
67941;SDS011;54731;42.600;23.476;2023-07-02T06:30:42;11.00;;;6.13;;
67941;SDS011;54731;42.600;23.476;2023-07-02T06:33:07;10.40;;;6.20;;
67941;SDS011;54731;42.600;23.476;2023-07-02T06:35:33;9.90;;;5.77;;
67941;SDS011;54731;42.600;23.476;2023-07-02T06:37:58;9.83;;;5.00;;
67941;SDS011;54731;42.600;23.476;2023-07-02T06:40:23;8.70;;;4.83;;
67941;SDS011;54731;42.600;23.476;2023-07-02T06:42:49;8.07;;;5.27;;
67941;SDS011;54731;42.600;23.476;2023-07-02T06:45:14;10.27;;;5.70;;
67941;SDS011;54731;42.600;23.476;2023-07-02T06:47:39;9.47;;;5.63;;
67941;SDS011;54731;42.600;23.476;2023-07-02T06:50:05;8.73;;;5.63;;
67941;SDS011;54731;42.600;23.476;2023-07-02T06:52:30;9.30;;;4.93;;
67941;SDS011;54731;42.600;23.476;2023-07-02T06:54:56;9.80;;;5.60;;
67941;SDS011;54731;42.600;23.476;2023-07-02T06:57:21;8.13;;;5.43;;
67941;SDS011;54731;42.600;23.476;2023-07-02T06:59:46;10.63;;;5.80;;
67941;SDS011;54731;42.600;23.476;2023-07-02T07:02:11;10.40;;;6.13;;
67941;SDS011;54731;42.600;23.476;2023-07-02T07:04:37;11.30;;;6.37;;
67941;SDS011;54731;42.600;23.476;2023-07-02T07:07:02;11.30;;;6.53;;
67941;SDS011;54731;42.600;23.476;2023-07-02T07:09:28;15.98;;;7.03;;
67941;SDS011;54731;42.600;23.476;2023-07-02T07:11:54;11.82;;;5.70;;
67941;SDS011;54731;42.600;23.476;2023-07-02T07:14:19;11.93;;;5.90;;
67941;SDS011;54731;42.600;23.476;2023-07-02T07:16:44;10.70;;;6.33;;
67941;SDS011;54731;42.600;23.476;2023-07-02T07:19:10;10.37;;;6.30;;
67941;SDS011;54731;42.600;23.476;2023-07-02T07:21:35;10.93;;;6.30;;
67941;SDS011;54731;42.600;23.476;2023-07-02T07:24:00;10.77;;;6.23;;
67941;SDS011;54731;42.600;23.476;2023-07-02T07:26:25;11.37;;;5.93;;
67941;SDS011;54731;42.600;23.476;2023-07-02T07:28:51;10.97;;;5.80;;
67941;SDS011;54731;42.600;23.476;2023-07-02T07:31:16;9.27;;;5.93;;
67941;SDS011;54731;42.600;23.476;2023-07-02T07:33:41;14.55;;;6.70;;
67941;SDS011;54731;42.600;23.476;2023-07-02T07:36:07;13.43;;;5.97;;
67941;SDS011;54731;42.600;23.476;2023-07-02T07:38:32;11.33;;;6.57;;
67941;SDS011;54731;42.600;23.476;2023-07-02T07:40:57;12.30;;;6.63;;
67941;SDS011;54731;42.600;23.476;2023-07-02T07:43:23;11.67;;;6.87;;
67941;SDS011;54731;42.600;23.476;2023-07-02T07:45:48;12.97;;;7.77;;
67941;SDS011;54731;42.600;23.476;2023-07-02T07:48:14;10.90;;;7.28;;
67941;SDS011;54731;42.600;23.476;2023-07-02T07:50:40;14.13;;;6.77;;
67941;SDS011;54731;42.600;23.476;2023-07-02T07:53:05;12.73;;;7.20;;
67941;SDS011;54731;42.600;23.476;2023-07-02T07:55:30;13.80;;;7.53;;
67941;SDS011;54731;42.600;23.476;2023-07-02T07:57:55;13.10;;;7.63;;
67941;SDS011;54731;42.600;23.476;2023-07-02T08:00:21;14.33;;;7.80;;
67941;SDS011;54731;42.600;23.476;2023-07-02T08:02:46;10.23;;;7.10;;
67941;SDS011;54731;42.600;23.476;2023-07-02T08:05:12;13.35;;;8.13;;
67941;SDS011;54731;42.600;23.476;2023-07-02T08:07:38;11.32;;;6.47;;
67941;SDS011;54731;42.600;23.476;2023-07-02T08:10:04;11.63;;;7.40;;
67941;SDS011;54731;42.600;23.476;2023-07-02T08:12:29;10.00;;;6.43;;
67941;SDS011;54731;42.600;23.476;2023-07-02T08:14:55;11.07;;;6.30;;
67941;SDS011;54731;42.600;23.476;2023-07-02T08:17:21;11.80;;;5.78;;
67941;SDS011;54731;42.600;23.476;2023-07-02T08:19:46;14.43;;;6.50;;
67941;SDS011;54731;42.600;23.476;2023-07-02T08:22:12;10.70;;;6.77;;
67941;SDS011;54731;42.600;23.476;2023-07-02T08:24:37;9.38;;;6.05;;
67941;SDS011;54731;42.600;23.476;2023-07-02T08:27:03;9.63;;;5.77;;
67941;SDS011;54731;42.600;23.476;2023-07-02T08:29:29;11.10;;;5.87;;
67941;SDS011;54731;42.600;23.476;2023-07-02T08:31:54;11.70;;;5.90;;
67941;SDS011;54731;42.600;23.476;2023-07-02T08:34:20;10.20;;;5.93;;
67941;SDS011;54731;42.600;23.476;2023-07-02T08:36:45;10.83;;;5.17;;
67941;SDS011;54731;42.600;23.476;2023-07-02T08:39:10;10.80;;;5.60;;
67941;SDS011;54731;42.600;23.476;2023-07-02T08:41:45;9.70;;;5.60;;
67941;SDS011;54731;42.600;23.476;2023-07-02T08:44:12;12.27;;;6.13;;
67941;SDS011;54731;42.600;23.476;2023-07-02T08:46:39;7.00;;;5.07;;
67941;SDS011;54731;42.600;23.476;2023-07-02T08:49:06;8.63;;;5.32;;
67941;SDS011;54731;42.600;23.476;2023-07-02T08:51:31;9.13;;;5.35;;
67941;SDS011;54731;42.600;23.476;2023-07-02T08:53:56;7.77;;;5.03;;
67941;SDS011;54731;42.600;23.476;2023-07-02T08:56:22;7.47;;;4.43;;
67941;SDS011;54731;42.600;23.476;2023-07-02T08:58:47;9.27;;;5.10;;
67941;SDS011;54731;42.600;23.476;2023-07-02T09:01:13;7.13;;;5.30;;
67941;SDS011;54731;42.600;23.476;2023-07-02T09:03:39;7.97;;;4.95;;
67941;SDS011;54731;42.600;23.476;2023-07-02T09:06:06;7.43;;;5.30;;
67941;SDS011;54731;42.600;23.476;2023-07-02T09:08:33;9.57;;;5.82;;
67941;SDS011;54731;42.600;23.476;2023-07-02T09:11:08;9.90;;;5.23;;
67941;SDS011;54731;42.600;23.476;2023-07-02T09:13:46;8.68;;;5.63;;
67941;SDS011;54731;42.600;23.476;2023-07-02T09:16:31;9.88;;;5.18;;
67941;SDS011;54731;42.600;23.476;2023-07-02T09:19:01;10.93;;;7.55;;
67941;SDS011;54731;42.600;23.476;2023-07-02T09:24:13;10.27;;;6.57;;
67941;SDS011;54731;42.600;23.476;2023-07-02T09:26:38;13.93;;;6.93;;
67941;SDS011;54731;42.600;23.476;2023-07-02T09:29:07;12.32;;;6.30;;
67941;SDS011;54731;42.600;23.476;2023-07-02T09:31:42;8.83;;;5.07;;
67941;SDS011;54731;42.600;23.476;2023-07-02T09:34:08;9.68;;;6.35;;
67941;SDS011;54731;42.600;23.476;2023-07-02T09:36:33;9.00;;;5.97;;
67941;SDS011;54731;42.600;23.476;2023-07-02T09:38:59;9.93;;;5.73;;
67941;SDS011;54731;42.600;23.476;2023-07-02T09:41:25;10.18;;;6.50;;
67941;SDS011;54731;42.600;23.476;2023-07-02T09:43:51;9.50;;;6.37;;
67941;SDS011;54731;42.600;23.476;2023-07-02T09:46:16;12.27;;;7.00;;
67941;SDS011;54731;42.600;23.476;2023-07-02T09:48:41;11.30;;;6.30;;
67941;SDS011;54731;42.600;23.476;2023-07-02T09:51:07;9.43;;;5.87;;
67941;SDS011;54731;42.600;23.476;2023-07-02T09:53:32;10.97;;;5.90;;
67941;SDS011;54731;42.600;23.476;2023-07-02T09:55:57;12.40;;;6.20;;
67941;SDS011;54731;42.600;23.476;2023-07-02T09:58:24;9.20;;;6.88;;
67941;SDS011;54731;42.600;23.476;2023-07-02T10:00:49;8.17;;;6.50;;
67941;SDS011;54731;42.600;23.476;2023-07-02T10:03:15;10.20;;;5.85;;
67941;SDS011;54731;42.600;23.476;2023-07-02T10:05:40;8.47;;;6.10;;
67941;SDS011;54731;42.600;23.476;2023-07-02T10:08:15;7.80;;;5.93;;
67941;SDS011;54731;42.600;23.476;2023-07-02T10:10:41;9.48;;;6.00;;
67941;SDS011;54731;42.600;23.476;2023-07-02T10:13:06;8.77;;;6.30;;
67941;SDS011;54731;42.600;23.476;2023-07-02T10:15:31;12.07;;;5.27;;
67941;SDS011;54731;42.600;23.476;2023-07-02T10:17:57;10.90;;;6.70;;
67941;SDS011;54731;42.600;23.476;2023-07-02T10:20:31;9.93;;;6.13;;
67941;SDS011;54731;42.600;23.476;2023-07-02T10:23:06;9.47;;;5.90;;
67941;SDS011;54731;42.600;23.476;2023-07-02T10:25:33;9.38;;;6.03;;
67941;SDS011;54731;42.600;23.476;2023-07-02T10:28:00;10.13;;;5.57;;
67941;SDS011;54731;42.600;23.476;2023-07-02T10:30:30;7.22;;;5.03;;
67941;SDS011;54731;42.600;23.476;2023-07-02T10:33:16;7.90;;;4.95;;
67941;SDS011;54731;42.600;23.476;2023-07-02T10:35:43;8.57;;;5.63;;
67941;SDS011;54731;42.600;23.476;2023-07-02T10:38:22;7.28;;;5.28;;
67941;SDS011;54731;42.600;23.476;2023-07-02T10:40:58;10.80;;;6.18;;
67941;SDS011;54731;42.600;23.476;2023-07-02T10:43:25;9.35;;;5.57;;
67941;SDS011;54731;42.600;23.476;2023-07-02T10:45:51;9.82;;;5.25;;
67941;SDS011;54731;42.600;23.476;2023-07-02T10:48:17;8.90;;;6.70;;
67941;SDS011;54731;42.600;23.476;2023-07-02T10:50:42;7.43;;;5.43;;
67941;SDS011;54731;42.600;23.476;2023-07-02T10:53:14;10.53;;;5.60;;
67941;SDS011;54731;42.600;23.476;2023-07-02T10:55:43;8.13;;;5.10;;
67941;SDS011;54731;42.600;23.476;2023-07-02T10:58:09;8.05;;;4.80;;
67941;SDS011;54731;42.600;23.476;2023-07-02T11:00:45;8.43;;;5.27;;
67941;SDS011;54731;42.600;23.476;2023-07-02T11:05:47;8.15;;;4.75;;
67941;SDS011;54731;42.600;23.476;2023-07-02T11:08:13;6.53;;;4.78;;
67941;SDS011;54731;42.600;23.476;2023-07-02T11:10:38;9.83;;;5.07;;
67941;SDS011;54731;42.600;23.476;2023-07-02T11:13:13;8.00;;;5.03;;
67941;SDS011;54731;42.600;23.476;2023-07-02T11:15:39;7.53;;;5.28;;
67941;SDS011;54731;42.600;23.476;2023-07-02T11:18:08;7.63;;;4.90;;
67941;SDS011;54731;42.600;23.476;2023-07-02T11:20:36;6.93;;;5.05;;
67941;SDS011;54731;42.600;23.476;2023-07-02T11:23:01;8.23;;;5.17;;
67941;SDS011;54731;42.600;23.476;2023-07-02T11:25:26;7.10;;;4.88;;
67941;SDS011;54731;42.600;23.476;2023-07-02T11:28:01;7.50;;;4.90;;
67941;SDS011;54731;42.600;23.476;2023-07-02T11:30:27;8.70;;;5.30;;
67941;SDS011;54731;42.600;23.476;2023-07-02T11:32:53;9.33;;;5.37;;
67941;SDS011;54731;42.600;23.476;2023-07-02T11:35:20;8.50;;;4.82;;
67941;SDS011;54731;42.600;23.476;2023-07-02T11:37:46;6.60;;;4.43;;
67941;SDS011;54731;42.600;23.476;2023-07-02T11:40:11;6.03;;;4.70;;
67941;SDS011;54731;42.600;23.476;2023-07-02T11:42:37;8.23;;;5.20;;
67941;SDS011;54731;42.600;23.476;2023-07-02T11:45:02;11.80;;;5.97;;
67941;SDS011;54731;42.600;23.476;2023-07-02T11:47:28;7.38;;;5.10;;
67941;SDS011;54731;42.600;23.476;2023-07-02T11:49:53;6.53;;;4.57;;
67941;SDS011;54731;42.600;23.476;2023-07-02T11:52:19;8.43;;;4.87;;
67941;SDS011;54731;42.600;23.476;2023-07-02T11:54:44;6.93;;;5.00;;
67941;SDS011;54731;42.600;23.476;2023-07-02T11:57:09;6.47;;;5.00;;
67941;SDS011;54731;42.600;23.476;2023-07-02T11:59:35;8.83;;;5.70;;
67941;SDS011;54731;42.600;23.476;2023-07-02T12:02:00;8.47;;;5.37;;
67941;SDS011;54731;42.600;23.476;2023-07-02T12:04:25;6.93;;;4.80;;
67941;SDS011;54731;42.600;23.476;2023-07-02T12:06:50;8.87;;;5.40;;
67941;SDS011;54731;42.600;23.476;2023-07-02T12:09:16;6.47;;;4.75;;
67941;SDS011;54731;42.600;23.476;2023-07-02T12:11:41;5.60;;;4.50;;
67941;SDS011;54731;42.600;23.476;2023-07-02T12:14:06;9.43;;;5.70;;
67941;SDS011;54731;42.600;23.476;2023-07-02T12:16:32;9.03;;;5.03;;
67941;SDS011;54731;42.600;23.476;2023-07-02T12:18:57;11.70;;;5.40;;
67941;SDS011;54731;42.600;23.476;2023-07-02T12:21:22;8.90;;;6.00;;
67941;SDS011;54731;42.600;23.476;2023-07-02T12:23:47;6.80;;;5.13;;
67941;SDS011;54731;42.600;23.476;2023-07-02T12:26:13;7.30;;;5.27;;
67941;SDS011;54731;42.600;23.476;2023-07-02T12:28:38;7.70;;;5.13;;
67941;SDS011;54731;42.600;23.476;2023-07-02T12:31:03;8.33;;;4.80;;
67941;SDS011;54731;42.600;23.476;2023-07-02T12:33:29;7.55;;;5.05;;
67941;SDS011;54731;42.600;23.476;2023-07-02T12:35:54;11.30;;;5.30;;
67941;SDS011;54731;42.600;23.476;2023-07-02T12:38:19;8.90;;;5.00;;
67941;SDS011;54731;42.600;23.476;2023-07-02T12:40:45;8.53;;;5.83;;
67941;SDS011;54731;42.600;23.476;2023-07-02T12:43:10;7.53;;;5.43;;
67941;SDS011;54731;42.600;23.476;2023-07-02T12:45:36;8.20;;;5.47;;
67941;SDS011;54731;42.600;23.476;2023-07-02T12:48:01;6.07;;;4.40;;
67941;SDS011;54731;42.600;23.476;2023-07-02T12:50:26;7.17;;;4.63;;
67941;SDS011;54731;42.600;23.476;2023-07-02T12:52:51;7.27;;;4.60;;
67941;SDS011;54731;42.600;23.476;2023-07-02T12:55:17;7.97;;;4.13;;
67941;SDS011;54731;42.600;23.476;2023-07-02T12:57:42;8.87;;;4.97;;
67941;SDS011;54731;42.600;23.476;2023-07-02T13:00:07;7.03;;;4.60;;
67941;SDS011;54731;42.600;23.476;2023-07-02T13:02:33;6.68;;;4.20;;
67941;SDS011;54731;42.600;23.476;2023-07-02T13:04:59;6.53;;;4.23;;
67941;SDS011;54731;42.600;23.476;2023-07-02T13:07:24;6.38;;;4.88;;
67941;SDS011;54731;42.600;23.476;2023-07-02T13:09:50;5.97;;;3.70;;
67941;SDS011;54731;42.600;23.476;2023-07-02T13:12:15;5.80;;;4.20;;
67941;SDS011;54731;42.600;23.476;2023-07-02T13:14:40;6.37;;;4.13;;
67941;SDS011;54731;42.600;23.476;2023-07-02T13:17:05;6.10;;;4.37;;
67941;SDS011;54731;42.600;23.476;2023-07-02T13:19:31;5.30;;;4.00;;
67941;SDS011;54731;42.600;23.476;2023-07-02T13:21:56;6.60;;;4.53;;
67941;SDS011;54731;42.600;23.476;2023-07-02T13:24:22;6.90;;;5.07;;
67941;SDS011;54731;42.600;23.476;2023-07-02T13:26:47;5.60;;;4.33;;
67941;SDS011;54731;42.600;23.476;2023-07-02T13:29:13;6.17;;;4.27;;
67941;SDS011;54731;42.600;23.476;2023-07-02T13:31:39;6.28;;;4.07;;
67941;SDS011;54731;42.600;23.476;2023-07-02T13:34:04;6.30;;;4.40;;
67941;SDS011;54731;42.600;23.476;2023-07-02T13:36:29;7.37;;;4.67;;
67941;SDS011;54731;42.600;23.476;2023-07-02T13:38:55;7.07;;;4.97;;
67941;SDS011;54731;42.600;23.476;2023-07-02T13:41:20;6.50;;;4.60;;
67941;SDS011;54731;42.600;23.476;2023-07-02T13:43:46;7.55;;;5.07;;
67941;SDS011;54731;42.600;23.476;2023-07-02T13:46:11;7.87;;;5.33;;
67941;SDS011;54731;42.600;23.476;2023-07-02T13:48:36;7.17;;;4.43;;
67941;SDS011;54731;42.600;23.476;2023-07-02T13:51:02;6.43;;;4.73;;
67941;SDS011;54731;42.600;23.476;2023-07-02T13:53:27;8.53;;;5.13;;
67941;SDS011;54731;42.600;23.476;2023-07-02T13:55:52;8.47;;;5.00;;
67941;SDS011;54731;42.600;23.476;2023-07-02T13:58:18;6.53;;;5.28;;
67941;SDS011;54731;42.600;23.476;2023-07-02T14:00:43;7.37;;;5.20;;
67941;SDS011;54731;42.600;23.476;2023-07-02T14:03:08;7.27;;;4.70;;
67941;SDS011;54731;42.600;23.476;2023-07-02T14:05:33;8.37;;;5.17;;
67941;SDS011;54731;42.600;23.476;2023-07-02T14:07:59;7.90;;;4.87;;
67941;SDS011;54731;42.600;23.476;2023-07-02T14:10:24;6.53;;;4.43;;
67941;SDS011;54731;42.600;23.476;2023-07-02T14:12:49;7.20;;;5.17;;
67941;SDS011;54731;42.600;23.476;2023-07-02T14:15:15;11.93;;;5.37;;
67941;SDS011;54731;42.600;23.476;2023-07-02T14:17:40;6.95;;;4.93;;
67941;SDS011;54731;42.600;23.476;2023-07-02T14:20:07;10.05;;;5.40;;
67941;SDS011;54731;42.600;23.476;2023-07-02T14:22:33;7.73;;;4.80;;
67941;SDS011;54731;42.600;23.476;2023-07-02T14:24:59;7.95;;;4.75;;
67941;SDS011;54731;42.600;23.476;2023-07-02T14:27:24;7.00;;;5.17;;